createdAt,value
2023-02-04T00:00:52.759Z,6.74
2023-02-04T00:03:23.251Z,6.73
2023-02-04T00:05:52.703Z,6.61
2023-02-04T00:08:23.349Z,6.78
2023-02-04T00:10:53.020Z,6.59
2023-02-04T00:13:23.171Z,6.44
2023-02-04T00:15:52.574Z,6.32
2023-02-04T00:18:23.028Z,6.73
2023-02-04T00:20:52.401Z,6.40
2023-02-04T00:23:22.163Z,6.38
2023-02-04T00:25:52.242Z,6.36
2023-02-04T00:28:21.370Z,6.74
2023-02-04T00:30:51.494Z,6.82
2023-02-04T00:33:20.783Z,6.68
2023-02-04T00:35:49.175Z,6.32
2023-02-04T00:38:19.469Z,6.37
2023-02-04T00:40:49.271Z,6.66
2023-02-04T00:43:21.185Z,6.72
2023-02-04T00:45:50.931Z,6.74
2023-02-04T00:48:20.089Z,6.50
2023-02-04T00:50:49.035Z,6.64
2023-02-04T00:53:19.266Z,6.85
2023-02-04T00:55:49.434Z,6.85
2023-02-04T00:58:20.534Z,6.54
2023-02-04T01:00:49.021Z,6.84
2023-02-04T01:03:19.867Z,6.85
2023-02-04T01:05:49.154Z,6.64
2023-02-04T01:08:19.487Z,6.66
2023-02-04T01:10:48.997Z,6.65
2023-02-04T01:13:18.566Z,6.69
2023-02-04T01:15:49.193Z,6.88
2023-02-04T01:18:19.590Z,6.57
2023-02-04T01:20:48.749Z,6.55
2023-02-04T01:23:18.838Z,6.79
2023-02-04T01:25:48.500Z,6.91
2023-02-04T01:28:18.737Z,6.94
2023-02-04T01:30:51.873Z,6.89
2023-02-04T01:33:24.189Z,6.90
2023-02-04T01:35:53.214Z,7.02
2023-02-04T01:38:22.880Z,6.95
2023-02-04T01:40:52.482Z,6.98
2023-02-04T01:43:25.102Z,6.66
2023-02-04T01:45:58.224Z,6.79
2023-02-04T01:49:01.031Z,6.85
2023-02-04T01:51:33.647Z,6.98
2023-02-04T01:54:03.849Z,6.61
2023-02-04T01:56:34.946Z,6.94
2023-02-04T01:59:10.770Z,6.83
2023-02-04T02:01:44.138Z,6.55
2023-02-04T02:04:20.821Z,6.67
2023-02-04T02:06:59.298Z,6.54
2023-02-04T02:09:32.069Z,6.91
2023-02-04T02:12:04.895Z,6.57
2023-02-04T02:14:35.063Z,6.66
2023-02-04T02:17:05.489Z,6.92
2023-02-04T02:19:40.865Z,6.95
2023-02-04T02:22:30.863Z,6.44
2023-02-04T02:25:01.980Z,6.68
2023-02-04T02:27:35.350Z,6.71
2023-02-04T02:30:08.086Z,7.00
2023-02-04T02:32:39.806Z,7.02
2023-02-04T02:35:11.645Z,6.79
2023-02-04T02:37:43.002Z,6.91
2023-02-04T02:40:16.718Z,6.68
2023-02-04T02:42:49.088Z,6.97
2023-02-04T02:45:35.175Z,6.69
2023-02-04T02:48:04.456Z,6.85
2023-02-04T02:50:35.156Z,6.85
2023-02-04T02:53:05.114Z,6.82
2023-02-04T02:55:35.430Z,6.83
2023-02-04T02:58:41.161Z,6.92
2023-02-04T03:01:11.900Z,6.66
2023-02-04T03:03:48.647Z,6.76
2023-02-04T03:06:24.457Z,6.85
2023-02-04T03:08:59.902Z,6.87
2023-02-04T03:11:33.310Z,7.01
2023-02-04T03:14:12.711Z,6.96
2023-02-04T03:16:45.017Z,6.97
2023-02-04T03:19:16.513Z,6.83
2023-02-04T03:21:47.792Z,6.90
2023-02-04T03:24:19.048Z,6.87
2023-02-04T03:26:49.293Z,6.93
2023-02-04T03:29:19.324Z,6.92
2023-02-04T03:31:51.429Z,7.05
2023-02-04T03:34:20.837Z,6.96
2023-02-04T03:36:49.883Z,6.85
2023-02-04T03:39:19.384Z,6.77
2023-02-04T03:41:49.211Z,7.03
2023-02-04T03:44:20.124Z,6.75
2023-02-04T03:46:49.385Z,6.78
2023-02-04T03:49:19.490Z,6.93
2023-02-04T03:51:49.205Z,6.85
2023-02-04T03:54:18.345Z,7.02
2023-02-04T03:56:47.724Z,6.91
2023-02-04T03:59:17.226Z,6.87
2023-02-04T04:01:47.293Z,7.05
2023-02-04T04:04:17.020Z,6.87
2023-02-04T04:06:47.397Z,7.03
2023-02-04T04:09:17.246Z,6.89
2023-02-04T04:11:47.013Z,6.91
2023-02-04T04:14:16.090Z,7.12
2023-02-04T04:16:44.905Z,6.73
2023-02-04T04:19:15.174Z,6.78
2023-02-04T04:21:44.356Z,6.87
2023-02-04T04:24:13.487Z,6.84
2023-02-04T04:26:43.220Z,6.88
2023-02-04T04:29:12.101Z,6.84
2023-02-04T04:31:41.840Z,6.91
2023-02-04T04:34:12.804Z,7.00
2023-02-04T04:36:41.935Z,6.96
2023-02-04T04:39:12.751Z,7.36
2023-02-04T04:41:42.712Z,7.16
2023-02-04T04:44:11.787Z,7.09
2023-02-04T04:46:41.284Z,7.10
2023-02-04T04:49:10.998Z,7.14
2023-02-04T04:51:41.231Z,7.05
2023-02-04T04:54:11.184Z,7.21
2023-02-04T04:56:42.158Z,6.97
2023-02-04T04:59:11.421Z,6.98
2023-02-04T05:01:40.994Z,7.23
2023-02-04T05:04:10.868Z,6.91
2023-02-04T05:06:40.994Z,7.09
2023-02-04T05:09:11.019Z,7.14
2023-02-04T05:11:40.527Z,7.08
2023-02-04T05:14:10.738Z,7.10
2023-02-04T05:16:40.750Z,7.24
2023-02-04T05:19:11.091Z,7.16
2023-02-04T05:21:40.750Z,7.07
2023-02-04T05:24:09.115Z,7.25
2023-02-04T05:26:42.034Z,7.21
2023-02-04T05:29:12.270Z,7.08
2023-02-04T05:31:41.821Z,7.44
2023-02-04T05:34:11.258Z,7.67
2023-02-04T05:36:42.144Z,7.41
2023-02-04T05:39:11.787Z,7.27
2023-02-04T05:41:41.646Z,7.23
2023-02-04T05:44:10.927Z,7.11
2023-02-04T05:46:40.783Z,7.16
2023-02-04T05:49:11.825Z,7.05
2023-02-04T05:51:41.870Z,7.03
2023-02-04T05:54:12.156Z,7.04
2023-02-04T05:56:41.612Z,7.25
2023-02-04T05:59:10.912Z,7.14
2023-02-04T06:01:40.920Z,7.25
2023-02-04T06:04:11.140Z,7.16
2023-02-04T06:06:40.938Z,7.57
2023-02-04T06:09:10.424Z,7.71
2023-02-04T06:11:40.957Z,7.58
2023-02-04T06:14:12.060Z,7.64
2023-02-04T06:16:42.471Z,7.63
2023-02-04T06:19:11.898Z,7.83
2023-02-04T06:21:41.531Z,7.61
2023-02-04T06:24:11.232Z,7.71
2023-02-04T06:26:43.038Z,7.36
2023-02-04T06:29:11.681Z,7.27
2023-02-04T06:31:42.639Z,7.43
2023-02-04T06:34:12.092Z,7.20
2023-02-04T06:36:41.622Z,7.21
2023-02-04T06:39:11.046Z,7.00
2023-02-04T06:41:41.171Z,6.99
2023-02-04T06:44:10.946Z,7.12
2023-02-04T06:46:39.990Z,7.04
2023-02-04T06:49:08.951Z,7.09
2023-02-04T06:51:37.835Z,7.09
2023-02-04T06:54:08.708Z,7.25
2023-02-04T06:56:39.128Z,7.06
2023-02-04T06:59:09.423Z,7.12
2023-02-04T07:01:39.110Z,7.04
2023-02-04T07:04:08.783Z,7.15
2023-02-04T07:06:40.801Z,7.21
2023-02-04T07:09:10.557Z,7.05
2023-02-04T07:11:40.669Z,7.08
2023-02-04T07:14:11.160Z,7.00
2023-02-04T07:16:41.418Z,7.03
2023-02-04T07:19:11.276Z,7.03
2023-02-04T07:21:40.553Z,7.13
2023-02-04T07:24:09.255Z,7.03
2023-02-04T07:26:39.375Z,7.04
2023-02-04T07:29:17.345Z,7.11
2023-02-04T07:31:52.828Z,7.16
2023-02-04T07:34:24.351Z,6.98
2023-02-04T07:36:55.082Z,6.89
2023-02-04T07:39:25.148Z,7.06
2023-02-04T07:41:54.640Z,7.14
2023-02-04T07:44:29.992Z,7.03
2023-02-04T07:47:00.495Z,6.89
2023-02-04T07:49:30.516Z,7.03
2023-02-04T07:52:00.601Z,6.90
2023-02-04T07:54:31.034Z,7.07
2023-02-04T07:57:01.969Z,7.04
2023-02-04T07:59:30.977Z,6.98
2023-02-04T08:02:03.304Z,7.09
2023-02-04T08:04:33.161Z,7.02
2023-02-04T08:07:03.459Z,6.96
2023-02-04T08:09:32.744Z,7.05
2023-02-04T08:12:01.712Z,6.97
2023-02-04T08:14:31.866Z,6.93
2023-02-04T08:17:01.898Z,7.16
2023-02-04T08:19:32.526Z,6.93
2023-02-04T08:22:01.662Z,6.95
2023-02-04T08:24:31.098Z,6.77
2023-02-04T08:27:01.891Z,6.99
2023-02-04T08:29:32.244Z,7.02
2023-02-04T08:32:04.855Z,7.02
2023-02-04T08:34:35.363Z,6.98
2023-02-04T08:37:05.940Z,6.94
2023-02-04T08:39:35.360Z,6.98
2023-02-04T08:42:05.207Z,7.06
2023-02-04T08:44:36.732Z,6.98
2023-02-04T08:47:05.571Z,6.80
2023-02-04T08:49:35.366Z,6.98
2023-02-04T08:52:07.167Z,6.96
2023-02-04T08:54:37.811Z,6.93
2023-02-04T08:57:07.969Z,6.98
2023-02-04T08:59:37.452Z,6.95
2023-02-04T09:02:08.385Z,6.89
2023-02-04T09:04:38.265Z,6.98
2023-02-04T09:07:09.557Z,7.06
2023-02-04T09:09:39.707Z,7.06
2023-02-04T09:12:09.518Z,6.98
2023-02-04T09:14:42.960Z,7.00
2023-02-04T09:17:13.413Z,7.01
2023-02-04T09:19:43.585Z,7.14
2023-02-04T09:22:13.933Z,7.21
2023-02-04T09:24:44.436Z,7.19
2023-02-04T09:27:13.387Z,7.08
2023-02-04T09:29:42.997Z,7.02
2023-02-04T09:32:12.623Z,7.16
2023-02-04T09:34:43.307Z,7.20
2023-02-04T09:37:12.726Z,7.01
2023-02-04T09:39:42.888Z,7.14
2023-02-04T09:42:18.864Z,7.27
2023-02-04T09:44:48.784Z,7.50
2023-02-04T09:47:23.486Z,7.58
2023-02-04T09:49:53.274Z,7.82
2023-02-04T09:52:25.218Z,7.76
2023-02-04T09:54:57.129Z,7.79
2023-02-04T09:57:31.005Z,7.63
2023-02-04T10:00:03.169Z,7.94
2023-02-04T10:02:37.212Z,7.79
2023-02-04T10:05:13.895Z,7.95
2023-02-04T10:07:44.940Z,7.85
2023-02-04T10:10:21.444Z,7.87
2023-02-04T10:12:54.851Z,7.82
2023-02-04T10:15:25.164Z,7.76
2023-02-04T10:18:08.165Z,7.94
2023-02-04T10:20:42.711Z,7.70
2023-02-04T10:23:12.886Z,7.65
2023-02-04T10:25:42.863Z,7.77
2023-02-04T10:28:11.259Z,7.83
2023-02-04T10:30:44.511Z,7.80
2023-02-04T10:33:30.754Z,7.58
2023-02-04T10:36:01.744Z,7.93
2023-02-04T10:38:32.260Z,7.91
2023-02-04T10:41:07.065Z,7.95
2023-02-04T10:43:36.443Z,7.54
2023-02-04T10:46:06.572Z,7.75
2023-02-04T10:48:44.685Z,7.79
2023-02-04T10:51:15.830Z,7.98
2023-02-04T10:54:04.672Z,7.91
2023-02-04T10:56:35.516Z,7.86
2023-02-04T10:59:04.897Z,8.03
2023-02-04T11:01:33.606Z,8.08
2023-02-04T11:04:05.169Z,7.98
2023-02-04T11:06:35.896Z,8.05
2023-02-04T11:09:06.418Z,8.08
2023-02-04T11:11:35.669Z,7.89
2023-02-04T11:14:05.541Z,7.83
2023-02-04T11:16:40.316Z,8.02
2023-02-04T11:19:16.527Z,7.90
2023-02-04T11:21:47.607Z,7.95
2023-02-04T11:24:17.478Z,8.12
2023-02-04T11:26:51.742Z,8.12
2023-02-04T11:29:26.791Z,7.97
2023-02-04T11:32:03.535Z,8.17
2023-02-04T11:34:45.406Z,8.11
2023-02-04T11:37:20.836Z,8.12
2023-02-04T11:39:52.811Z,7.94
2023-02-04T11:42:54.632Z,7.94
2023-02-04T11:45:38.786Z,7.95
2023-02-04T11:48:24.034Z,8.02
2023-02-04T11:51:05.256Z,7.90
2023-02-04T11:53:36.098Z,8.29
2023-02-04T11:56:05.495Z,8.17
2023-02-04T11:58:35.516Z,8.05
2023-02-04T12:01:04.791Z,8.06
2023-02-04T12:03:36.921Z,8.03
2023-02-04T12:06:08.715Z,8.21
2023-02-04T12:08:39.075Z,8.15
2023-02-04T12:11:12.314Z,8.12
2023-02-04T12:13:50.859Z,8.03
2023-02-04T12:16:21.790Z,8.07
2023-02-04T12:18:52.699Z,8.03
2023-02-04T12:21:22.120Z,8.14
2023-02-04T12:23:51.276Z,7.97
2023-02-04T12:26:20.466Z,8.17
2023-02-04T12:28:49.010Z,8.00
2023-02-04T12:31:19.435Z,7.98
2023-02-04T12:33:49.012Z,7.96
2023-02-04T12:36:19.431Z,8.08
2023-02-04T12:38:48.856Z,8.08
2023-02-04T12:41:17.680Z,7.50
2023-02-04T12:43:51.234Z,7.43
2023-02-04T12:46:21.054Z,7.48
2023-02-04T12:48:51.099Z,7.30
2023-02-04T12:51:21.482Z,7.33
2023-02-04T12:53:52.120Z,7.40
2023-02-04T12:56:24.895Z,7.38
2023-02-04T12:58:57.467Z,7.24
2023-02-04T13:01:31.947Z,7.40
2023-02-04T13:04:03.299Z,7.34
2023-02-04T13:06:33.507Z,7.23
2023-02-04T13:09:03.519Z,7.19
2023-02-04T13:11:35.448Z,7.31
2023-02-04T13:14:05.417Z,7.25
2023-02-04T13:16:39.606Z,7.12
2023-02-04T13:19:09.397Z,7.31
2023-02-04T13:21:40.659Z,7.53
2023-02-04T13:24:10.281Z,7.42
2023-02-04T13:26:41.363Z,7.23
2023-02-04T13:29:11.077Z,7.35
2023-02-04T13:31:42.661Z,7.10
2023-02-04T13:34:12.827Z,7.09
2023-02-04T13:36:44.632Z,7.26
2023-02-04T13:39:13.636Z,7.14
2023-02-04T13:41:45.150Z,7.35
2023-02-04T13:44:15.430Z,7.20
2023-02-04T13:46:46.479Z,7.26
2023-02-04T13:49:16.497Z,6.93
2023-02-04T13:51:45.372Z,7.21
2023-02-04T13:54:15.543Z,7.07
2023-02-04T13:56:45.487Z,6.93
2023-02-04T13:59:16.045Z,7.24
2023-02-04T14:01:45.230Z,7.38
2023-02-04T14:04:15.840Z,6.94
2023-02-04T14:06:46.345Z,6.85
2023-02-04T14:09:16.786Z,6.76
2023-02-04T14:11:45.739Z,6.78
2023-02-04T14:14:15.978Z,6.93
2023-02-04T14:16:45.044Z,6.85
2023-02-04T14:19:15.285Z,6.64
2023-02-04T14:21:44.460Z,6.61
2023-02-04T14:24:13.468Z,6.67
2023-02-04T14:26:43.640Z,6.51
2023-02-04T14:29:12.635Z,6.66
2023-02-04T14:31:41.475Z,6.46
2023-02-04T14:34:11.264Z,6.76
2023-02-04T14:36:42.035Z,6.81
2023-02-04T14:39:11.239Z,6.64
2023-02-04T14:41:41.308Z,6.53
2023-02-04T14:44:11.174Z,6.72
2023-02-04T14:46:43.732Z,6.43
2023-02-04T14:49:13.657Z,6.59
2023-02-04T14:51:43.869Z,6.58
2023-02-04T14:54:12.729Z,6.70
2023-02-04T14:56:43.404Z,6.47
2023-02-04T14:59:13.213Z,6.77
2023-02-04T15:01:43.560Z,6.62
2023-02-04T15:04:13.573Z,6.50
2023-02-04T15:06:43.387Z,6.33
2023-02-04T15:09:12.463Z,6.50
2023-02-04T15:11:43.284Z,6.51
2023-02-04T15:14:12.440Z,6.54
2023-02-04T15:16:44.732Z,6.31
2023-02-04T15:19:13.493Z,6.68
2023-02-04T15:21:43.086Z,6.44
2023-02-04T15:24:13.544Z,6.56
2023-02-04T15:26:43.403Z,6.56
2023-02-04T15:29:12.721Z,6.67
2023-02-04T15:31:42.691Z,6.62
2023-02-04T15:34:12.181Z,6.42
2023-02-04T15:36:42.156Z,6.34
2023-02-04T15:39:11.680Z,6.33
2023-02-04T15:41:42.173Z,6.33
2023-02-04T15:44:13.237Z,6.07
2023-02-04T15:46:43.238Z,6.27
2023-02-04T15:49:12.400Z,6.27
2023-02-04T15:51:42.831Z,6.06
2023-02-04T15:54:11.600Z,6.38
2023-02-04T15:56:42.111Z,6.28
2023-02-04T15:59:11.440Z,6.33
2023-02-04T16:01:41.068Z,6.36
2023-02-04T16:04:11.406Z,6.18
2023-02-04T16:06:50.165Z,6.20
2023-02-04T16:09:23.435Z,6.12
2023-02-04T16:11:52.474Z,5.84
2023-02-04T16:14:21.703Z,6.04
2023-02-04T16:16:51.219Z,5.85
2023-02-04T16:19:19.857Z,5.82
2023-02-04T16:21:49.391Z,5.66
2023-02-04T16:24:19.885Z,5.62
2023-02-04T16:26:49.384Z,5.82
2023-02-04T16:29:19.423Z,5.54
2023-02-04T16:31:49.344Z,5.70
2023-02-04T16:34:19.424Z,5.80
2023-02-04T16:36:48.773Z,5.68
2023-02-04T16:39:17.551Z,5.39
2023-02-04T16:41:47.950Z,5.80
2023-02-04T16:44:17.217Z,5.41
2023-02-04T16:46:49.616Z,5.44
2023-02-04T16:49:21.221Z,5.40
2023-02-04T16:51:51.534Z,5.23
2023-02-04T16:54:21.244Z,5.46
2023-02-04T16:56:51.604Z,5.72
2023-02-04T16:59:21.103Z,5.42
2023-02-04T17:01:49.985Z,5.54
2023-02-04T17:04:21.070Z,5.32
2023-02-04T17:06:52.875Z,5.42
2023-02-04T17:09:22.700Z,4.99
2023-02-04T17:11:52.513Z,4.92
2023-02-04T17:14:24.820Z,5.14
2023-02-04T17:16:54.200Z,4.85
2023-02-04T17:19:24.608Z,5.02
2023-02-04T17:21:54.700Z,4.55
2023-02-04T17:24:25.149Z,4.91
2023-02-04T17:26:53.740Z,4.83
2023-02-04T17:29:24.771Z,4.65
2023-02-04T17:31:55.742Z,4.86
2023-02-04T17:34:25.471Z,5.04
2023-02-04T17:36:55.855Z,4.62
2023-02-04T17:39:26.112Z,4.42
2023-02-04T17:41:59.021Z,4.78
2023-02-04T17:44:30.108Z,5.00
2023-02-04T17:47:03.418Z,4.55
2023-02-04T17:49:33.973Z,4.78
2023-02-04T17:52:04.661Z,4.77
2023-02-04T17:54:35.513Z,4.50
2023-02-04T17:57:20.420Z,4.14
2023-02-04T17:59:51.184Z,4.59
2023-02-04T18:02:27.865Z,4.52
2023-02-04T18:05:07.037Z,4.50
2023-02-04T18:07:37.248Z,4.73
2023-02-04T18:10:26.586Z,4.43
2023-02-04T18:12:58.428Z,4.77
2023-02-04T18:15:33.413Z,4.88
2023-02-04T18:18:25.454Z,4.60
2023-02-04T18:21:03.408Z,4.85
2023-02-04T18:23:33.807Z,4.89
2023-02-04T18:26:27.931Z,4.55
2023-02-04T18:29:01.449Z,4.79
2023-02-04T18:31:36.351Z,5.04
2023-02-04T18:34:35.621Z,4.46
2023-02-04T18:37:30.121Z,4.67
2023-02-04T18:40:10.826Z,4.90
2023-02-04T18:42:44.812Z,4.83
2023-02-04T18:45:34.243Z,4.50
2023-02-04T18:48:25.847Z,4.43
2023-02-04T18:51:00.645Z,4.85
2023-02-04T18:53:31.485Z,4.86
2023-02-04T18:56:02.869Z,4.86
2023-02-04T18:58:42.098Z,4.57
2023-02-04T19:01:11.316Z,4.94
2023-02-04T19:03:46.253Z,4.92
2023-02-04T19:06:39.521Z,4.70
2023-02-04T19:09:12.175Z,4.84
2023-02-04T19:11:47.279Z,4.87
2023-02-04T19:14:37.909Z,4.43
2023-02-04T19:17:22.382Z,4.67
2023-02-04T19:19:54.059Z,5.12
2023-02-04T19:22:37.606Z,4.74
2023-02-04T19:25:25.610Z,4.31
2023-02-04T19:28:00.115Z,4.75
2023-02-04T19:30:29.849Z,4.92
2023-02-04T19:33:02.886Z,4.90
2023-02-04T19:35:42.858Z,4.42
2023-02-04T19:38:46.049Z,4.51
2023-02-04T19:41:24.953Z,4.76
2023-02-04T19:44:17.300Z,5.10
2023-02-04T19:46:46.879Z,4.71
2023-02-04T19:49:30.385Z,4.89
2023-02-04T19:52:01.629Z,4.92
2023-02-04T19:54:39.997Z,4.65
2023-02-04T19:57:27.469Z,4.45
2023-02-04T19:59:58.262Z,4.88
2023-02-04T20:02:36.251Z,4.83
2023-02-04T20:05:21.994Z,4.63
2023-02-04T20:07:51.372Z,4.89
2023-02-04T20:10:30.439Z,4.83
2023-02-04T20:13:13.261Z,4.79
2023-02-04T20:15:42.500Z,5.02
2023-02-04T20:18:20.689Z,4.86
2023-02-04T20:20:49.602Z,4.92
2023-02-04T20:23:36.408Z,4.74
2023-02-04T20:26:05.532Z,4.93
2023-02-04T20:28:38.553Z,4.91
2023-02-04T20:31:31.547Z,4.52
2023-02-04T20:34:01.273Z,4.85
2023-02-04T20:36:38.935Z,4.60
2023-02-04T20:39:17.173Z,4.53
2023-02-04T20:41:47.204Z,4.87
2023-02-04T20:44:28.794Z,4.90
2023-02-04T20:47:20.921Z,4.56
2023-02-04T20:49:55.132Z,4.98
2023-02-04T20:52:44.341Z,4.62
2023-02-04T20:55:33.971Z,4.70
2023-02-04T20:58:09.540Z,4.83
2023-02-04T21:00:41.411Z,4.98
2023-02-04T21:03:13.734Z,4.86
2023-02-04T21:05:42.918Z,4.88
2023-02-04T21:08:33.719Z,4.89
2023-02-04T21:11:04.769Z,4.82
2023-02-04T21:13:34.395Z,4.93
2023-02-04T21:16:04.744Z,4.89
2023-02-04T21:18:37.176Z,5.04
2023-02-04T21:21:09.918Z,5.05
2023-02-04T21:23:40.071Z,5.06
2023-02-04T21:26:09.535Z,5.08
2023-02-04T21:28:39.542Z,5.03
2023-02-04T21:31:12.543Z,4.97
2023-02-04T21:33:41.877Z,5.04
2023-02-04T21:36:11.335Z,5.08
2023-02-04T21:38:41.213Z,5.15
2023-02-04T21:41:09.548Z,5.08
2023-02-04T21:43:39.556Z,5.09
2023-02-04T21:46:08.861Z,5.12
2023-02-04T21:48:37.656Z,5.05
2023-02-04T21:51:07.756Z,5.07
2023-02-04T21:53:37.493Z,4.99
2023-02-04T21:56:09.114Z,5.03
2023-02-04T21:58:40.158Z,4.89
2023-02-04T22:01:11.264Z,5.09
2023-02-04T22:03:40.844Z,5.31
2023-02-04T22:06:10.571Z,5.28
2023-02-04T22:08:40.448Z,4.87
2023-02-04T22:11:09.653Z,5.19
2023-02-04T22:13:40.189Z,5.08
2023-02-04T22:16:09.720Z,4.97
2023-02-04T22:18:39.621Z,5.19
2023-02-04T22:21:10.016Z,5.05
2023-02-04T22:23:41.665Z,5.18
2023-02-04T22:26:11.308Z,5.10
2023-02-04T22:28:41.997Z,4.93
2023-02-04T22:31:13.343Z,5.21
2023-02-04T22:33:43.258Z,5.14
2023-02-04T22:36:12.962Z,5.35
2023-02-04T22:38:43.168Z,5.22
2023-02-04T22:41:12.407Z,5.21
2023-02-04T22:43:42.377Z,5.13
2023-02-04T22:46:13.003Z,4.99
2023-02-04T22:48:44.046Z,5.20
2023-02-04T22:51:13.242Z,5.13
2023-02-04T22:53:43.718Z,5.18
2023-02-04T22:56:13.485Z,5.12
2023-02-04T22:58:44.085Z,5.12
2023-02-04T23:01:13.323Z,5.05
2023-02-04T23:03:43.310Z,5.13
2023-02-04T23:06:13.135Z,5.22
2023-02-04T23:08:43.784Z,5.23
2023-02-04T23:11:13.218Z,5.19
2023-02-04T23:13:43.735Z,5.32
2023-02-04T23:16:13.581Z,5.18
2023-02-04T23:18:43.568Z,5.06
2023-02-04T23:21:13.491Z,5.13
2023-02-04T23:23:44.507Z,5.14
2023-02-04T23:26:13.953Z,5.21
2023-02-04T23:28:44.016Z,5.11
2023-02-04T23:31:15.362Z,5.14
2023-02-04T23:33:44.991Z,5.16
2023-02-04T23:36:14.299Z,5.24
2023-02-04T23:38:43.761Z,5.16
2023-02-04T23:41:13.677Z,5.33
2023-02-04T23:43:45.538Z,5.20
2023-02-04T23:46:17.323Z,5.13
2023-02-04T23:48:47.676Z,4.96
2023-02-04T23:51:18.509Z,5.25
2023-02-04T23:53:49.787Z,5.29
2023-02-04T23:56:23.908Z,5.34
2023-02-04T23:58:55.767Z,5.36
